sensor_id;sensor_type;location;lat;lon;timestamp;temperature;humidity
5017;DHT22;2527;50.892;16.706;2024-03-17T00:00:38;10.90;99.90
5017;DHT22;2527;50.892;16.706;2024-03-17T00:03:05;11.00;99.90
5017;DHT22;2527;50.892;16.706;2024-03-17T00:05:34;11.00;99.90
5017;DHT22;2527;50.892;16.706;2024-03-17T00:08:01;11.00;99.90
5017;DHT22;2527;50.892;16.706;2024-03-17T00:10:30;11.00;99.90
5017;DHT22;2527;50.892;16.706;2024-03-17T00:12:56;10.90;99.90
5017;DHT22;2527;50.892;16.706;2024-03-17T00:15:23;10.90;99.90
5017;DHT22;2527;50.892;16.706;2024-03-17T00:17:49;10.90;99.90
5017;DHT22;2527;50.892;16.706;2024-03-17T00:20:15;10.90;99.90
5017;DHT22;2527;50.892;16.706;2024-03-17T00:22:48;10.90;99.90
5017;DHT22;2527;50.892;16.706;2024-03-17T00:25:14;10.80;99.90
5017;DHT22;2527;50.892;16.706;2024-03-17T00:27:40;10.90;99.90
5017;DHT22;2527;50.892;16.706;2024-03-17T00:30:09;10.80;99.90
5017;DHT22;2527;50.892;16.706;2024-03-17T00:32:40;10.80;99.90
5017;DHT22;2527;50.892;16.706;2024-03-17T00:35:07;10.80;99.90
5017;DHT22;2527;50.892;16.706;2024-03-17T00:37:34;10.80;99.90
5017;DHT22;2527;50.892;16.706;2024-03-17T00:40:01;10.70;99.90
5017;DHT22;2527;50.892;16.706;2024-03-17T00:42:26;10.70;99.90
5017;DHT22;2527;50.892;16.706;2024-03-17T00:44:53;10.70;99.90
5017;DHT22;2527;50.892;16.706;2024-03-17T00:47:20;10.70;99.90
5017;DHT22;2527;50.892;16.706;2024-03-17T00:49:51;10.60;99.90
5017;DHT22;2527;50.892;16.706;2024-03-17T00:52:16;10.60;99.90
5017;DHT22;2527;50.892;16.706;2024-03-17T00:54:42;10.60;99.90
5017;DHT22;2527;50.892;16.706;2024-03-17T00:57:08;10.60;99.90
5017;DHT22;2527;50.892;16.706;2024-03-17T00:59:34;10.50;99.90
5017;DHT22;2527;50.892;16.706;2024-03-17T01:02:01;10.50;99.90
5017;DHT22;2527;50.892;16.706;2024-03-17T01:04:28;10.50;99.90
5017;DHT22;2527;50.892;16.706;2024-03-17T01:06:54;10.50;99.90
5017;DHT22;2527;50.892;16.706;2024-03-17T01:09:22;10.50;99.90
5017;DHT22;2527;50.892;16.706;2024-03-17T01:11:48;10.40;99.90
5017;DHT22;2527;50.892;16.706;2024-03-17T01:14:14;10.40;99.90
5017;DHT22;2527;50.892;16.706;2024-03-17T01:16:40;10.40;99.90
5017;DHT22;2527;50.892;16.706;2024-03-17T01:19:05;10.40;99.90
5017;DHT22;2527;50.892;16.706;2024-03-17T01:21:31;10.40;99.90
5017;DHT22;2527;50.892;16.706;2024-03-17T01:23:59;10.40;99.90
5017;DHT22;2527;50.892;16.706;2024-03-17T01:26:29;10.40;99.90
5017;DHT22;2527;50.892;16.706;2024-03-17T01:28:57;10.30;99.90
5017;DHT22;2527;50.892;16.706;2024-03-17T01:31:24;10.30;99.90
5017;DHT22;2527;50.892;16.706;2024-03-17T01:33:50;10.30;99.90
5017;DHT22;2527;50.892;16.706;2024-03-17T01:36:15;10.30;99.90
5017;DHT22;2527;50.892;16.706;2024-03-17T01:38:41;10.30;99.90
5017;DHT22;2527;50.892;16.706;2024-03-17T01:41:07;10.30;99.90
5017;DHT22;2527;50.892;16.706;2024-03-17T01:43:32;10.20;99.90
5017;DHT22;2527;50.892;16.706;2024-03-17T01:45:58;10.20;99.90
5017;DHT22;2527;50.892;16.706;2024-03-17T01:48:24;10.20;99.90
5017;DHT22;2527;50.892;16.706;2024-03-17T01:50:52;10.20;99.90
5017;DHT22;2527;50.892;16.706;2024-03-17T01:53:18;10.20;99.90
5017;DHT22;2527;50.892;16.706;2024-03-17T01:55:46;10.20;99.90
5017;DHT22;2527;50.892;16.706;2024-03-17T01:58:12;10.10;99.90
5017;DHT22;2527;50.892;16.706;2024-03-17T02:00:38;10.10;99.90
5017;DHT22;2527;50.892;16.706;2024-03-17T02:03:07;10.10;99.90
5017;DHT22;2527;50.892;16.706;2024-03-17T02:05:35;10.10;99.90
5017;DHT22;2527;50.892;16.706;2024-03-17T02:08:06;10.00;99.90
5017;DHT22;2527;50.892;16.706;2024-03-17T02:10:33;10.00;99.90
5017;DHT22;2527;50.892;16.706;2024-03-17T02:13:00;10.00;99.90
5017;DHT22;2527;50.892;16.706;2024-03-17T02:15:26;10.00;99.90
5017;DHT22;2527;50.892;16.706;2024-03-17T02:17:52;10.00;99.90
5017;DHT22;2527;50.892;16.706;2024-03-17T02:20:18;9.90;99.90
5017;DHT22;2527;50.892;16.706;2024-03-17T02:22:46;9.90;99.90
5017;DHT22;2527;50.892;16.706;2024-03-17T02:25:12;9.90;99.90
5017;DHT22;2527;50.892;16.706;2024-03-17T02:27:38;9.90;99.90
5017;DHT22;2527;50.892;16.706;2024-03-17T02:30:04;9.90;99.90
5017;DHT22;2527;50.892;16.706;2024-03-17T02:32:35;9.90;99.90
5017;DHT22;2527;50.892;16.706;2024-03-17T02:35:02;9.80;99.90
5017;DHT22;2527;50.892;16.706;2024-03-17T02:37:30;9.80;99.90
5017;DHT22;2527;50.892;16.706;2024-03-17T02:39:56;9.80;99.90
5017;DHT22;2527;50.892;16.706;2024-03-17T02:42:22;9.80;99.90
5017;DHT22;2527;50.892;16.706;2024-03-17T02:44:48;9.80;99.90
5017;DHT22;2527;50.892;16.706;2024-03-17T02:47:13;9.80;99.90
5017;DHT22;2527;50.892;16.706;2024-03-17T02:49:40;9.70;99.90
5017;DHT22;2527;50.892;16.706;2024-03-17T02:52:09;9.70;99.90
5017;DHT22;2527;50.892;16.706;2024-03-17T02:54:36;9.70;99.90
5017;DHT22;2527;50.892;16.706;2024-03-17T02:57:04;9.70;99.90
5017;DHT22;2527;50.892;16.706;2024-03-17T02:59:30;9.60;99.90
5017;DHT22;2527;50.892;16.706;2024-03-17T03:01:58;9.60;99.90
5017;DHT22;2527;50.892;16.706;2024-03-17T03:04:28;9.60;99.90
5017;DHT22;2527;50.892;16.706;2024-03-17T03:06:54;9.60;99.90
5017;DHT22;2527;50.892;16.706;2024-03-17T03:09:20;9.60;99.90
5017;DHT22;2527;50.892;16.706;2024-03-17T03:11:50;9.50;99.90
5017;DHT22;2527;50.892;16.706;2024-03-17T03:14:17;9.50;99.90
5017;DHT22;2527;50.892;16.706;2024-03-17T03:16:43;9.50;99.90
5017;DHT22;2527;50.892;16.706;2024-03-17T03:19:09;9.40;99.90
5017;DHT22;2527;50.892;16.706;2024-03-17T03:21:35;9.50;99.90
5017;DHT22;2527;50.892;16.706;2024-03-17T03:24:01;9.50;99.90
5017;DHT22;2527;50.892;16.706;2024-03-17T03:26:29;9.40;99.90
5017;DHT22;2527;50.892;16.706;2024-03-17T03:28:55;9.40;99.90
5017;DHT22;2527;50.892;16.706;2024-03-17T03:31:20;9.40;99.90
5017;DHT22;2527;50.892;16.706;2024-03-17T03:33:47;9.40;99.90
5017;DHT22;2527;50.892;16.706;2024-03-17T03:36:13;9.40;99.90
5017;DHT22;2527;50.892;16.706;2024-03-17T03:38:39;9.40;99.90
5017;DHT22;2527;50.892;16.706;2024-03-17T03:41:07;9.30;99.90
5017;DHT22;2527;50.892;16.706;2024-03-17T03:43:33;9.30;99.90
5017;DHT22;2527;50.892;16.706;2024-03-17T03:45:59;9.30;99.90
5017;DHT22;2527;50.892;16.706;2024-03-17T03:48:25;9.30;99.90
5017;DHT22;2527;50.892;16.706;2024-03-17T03:50:52;9.30;99.90
5017;DHT22;2527;50.892;16.706;2024-03-17T03:53:17;8.00;99.90
5017;DHT22;2527;50.892;16.706;2024-03-17T03:55:44;9.20;99.90
5017;DHT22;2527;50.892;16.706;2024-03-17T03:58:10;9.20;99.90
5017;DHT22;2527;50.892;16.706;2024-03-17T04:00:41;9.20;99.90
5017;DHT22;2527;50.892;16.706;2024-03-17T04:03:06;9.20;99.90
5017;DHT22;2527;50.892;16.706;2024-03-17T04:05:32;9.20;99.90
5017;DHT22;2527;50.892;16.706;2024-03-17T04:07:57;9.20;99.90
5017;DHT22;2527;50.892;16.706;2024-03-17T04:10:24;9.20;99.90
5017;DHT22;2527;50.892;16.706;2024-03-17T04:15:21;9.20;99.90
5017;DHT22;2527;50.892;16.706;2024-03-17T04:17:47;9.10;99.90
5017;DHT22;2527;50.892;16.706;2024-03-17T04:20:12;9.20;99.90
5017;DHT22;2527;50.892;16.706;2024-03-17T04:22:41;9.10;99.90
5017;DHT22;2527;50.892;16.706;2024-03-17T04:25:12;9.10;99.90
5017;DHT22;2527;50.892;16.706;2024-03-17T04:27:40;9.10;99.90
5017;DHT22;2527;50.892;16.706;2024-03-17T04:30:06;9.00;99.90
5017;DHT22;2527;50.892;16.706;2024-03-17T04:32:33;9.00;99.90
5017;DHT22;2527;50.892;16.706;2024-03-17T04:34:59;9.00;99.90
5017;DHT22;2527;50.892;16.706;2024-03-17T04:37:25;9.00;99.90
5017;DHT22;2527;50.892;16.706;2024-03-17T04:39:51;9.00;99.90
5017;DHT22;2527;50.892;16.706;2024-03-17T04:42:17;9.00;99.90
5017;DHT22;2527;50.892;16.706;2024-03-17T04:44:43;9.00;99.90
5017;DHT22;2527;50.892;16.706;2024-03-17T04:47:10;8.90;99.90
5017;DHT22;2527;50.892;16.706;2024-03-17T04:49:40;8.90;99.90
5017;DHT22;2527;50.892;16.706;2024-03-17T04:52:06;8.90;99.90
5017;DHT22;2527;50.892;16.706;2024-03-17T04:54:32;8.90;99.90
5017;DHT22;2527;50.892;16.706;2024-03-17T04:56:58;8.90;99.90
5017;DHT22;2527;50.892;16.706;2024-03-17T04:59:24;8.90;99.90
5017;DHT22;2527;50.892;16.706;2024-03-17T05:01:50;8.90;99.90
5017;DHT22;2527;50.892;16.706;2024-03-17T05:04:15;8.80;99.90
5017;DHT22;2527;50.892;16.706;2024-03-17T05:06:41;8.80;99.90
5017;DHT22;2527;50.892;16.706;2024-03-17T05:09:08;8.80;99.90
5017;DHT22;2527;50.892;16.706;2024-03-17T05:11:33;8.80;99.90
5017;DHT22;2527;50.892;16.706;2024-03-17T05:14:01;8.70;99.90
5017;DHT22;2527;50.892;16.706;2024-03-17T05:16:27;8.70;99.90
5017;DHT22;2527;50.892;16.706;2024-03-17T05:18:55;8.80;99.90
5017;DHT22;2527;50.892;16.706;2024-03-17T05:21:21;8.70;99.90
5017;DHT22;2527;50.892;16.706;2024-03-17T05:23:51;8.70;99.90
5017;DHT22;2527;50.892;16.706;2024-03-17T05:26:17;8.70;99.90
5017;DHT22;2527;50.892;16.706;2024-03-17T05:28:43;8.70;99.90
5017;DHT22;2527;50.892;16.706;2024-03-17T05:31:10;8.70;99.90
5017;DHT22;2527;50.892;16.706;2024-03-17T05:33:35;8.70;99.90
5017;DHT22;2527;50.892;16.706;2024-03-17T05:36:02;8.70;99.90
5017;DHT22;2527;50.892;16.706;2024-03-17T05:38:29;8.70;99.90
5017;DHT22;2527;50.892;16.706;2024-03-17T05:43:29;8.70;99.90
5017;DHT22;2527;50.892;16.706;2024-03-17T05:46:05;8.70;99.90
5017;DHT22;2527;50.892;16.706;2024-03-17T05:48:37;8.70;99.90
5017;DHT22;2527;50.892;16.706;2024-03-17T05:51:06;8.70;99.90
5017;DHT22;2527;50.892;16.706;2024-03-17T05:53:32;8.70;99.90
5017;DHT22;2527;50.892;16.706;2024-03-17T05:55:58;8.70;99.90
5017;DHT22;2527;50.892;16.706;2024-03-17T05:58:26;8.70;99.90
5017;DHT22;2527;50.892;16.706;2024-03-17T06:00:53;8.70;99.90
5017;DHT22;2527;50.892;16.706;2024-03-17T06:03:19;8.80;99.90
5017;DHT22;2527;50.892;16.706;2024-03-17T06:05:45;8.80;99.90
5017;DHT22;2527;50.892;16.706;2024-03-17T06:08:11;8.90;99.90
5017;DHT22;2527;50.892;16.706;2024-03-17T06:10:42;9.10;99.90
5017;DHT22;2527;50.892;16.706;2024-03-17T06:13:08;9.20;99.90
5017;DHT22;2527;50.892;16.706;2024-03-17T06:15:41;9.40;99.90
5017;DHT22;2527;50.892;16.706;2024-03-17T06:18:09;9.60;99.90
5017;DHT22;2527;50.892;16.706;2024-03-17T06:20:41;9.80;99.90
5017;DHT22;2527;50.892;16.706;2024-03-17T06:23:10;10.00;99.90
5017;DHT22;2527;50.892;16.706;2024-03-17T06:25:46;10.20;99.90
5017;DHT22;2527;50.892;16.706;2024-03-17T06:28:12;10.40;99.90
5017;DHT22;2527;50.892;16.706;2024-03-17T06:30:41;10.60;99.90
5017;DHT22;2527;50.892;16.706;2024-03-17T06:33:10;10.80;99.90
5017;DHT22;2527;50.892;16.706;2024-03-17T06:35:36;10.90;99.90
5017;DHT22;2527;50.892;16.706;2024-03-17T06:38:02;11.10;99.90
5017;DHT22;2527;50.892;16.706;2024-03-17T06:40:28;11.20;99.90
5017;DHT22;2527;50.892;16.706;2024-03-17T06:42:54;11.40;99.90
5017;DHT22;2527;50.892;16.706;2024-03-17T06:45:20;11.50;99.90
5017;DHT22;2527;50.892;16.706;2024-03-17T06:47:46;11.60;99.90
5017;DHT22;2527;50.892;16.706;2024-03-17T06:50:11;11.70;99.90
5017;DHT22;2527;50.892;16.706;2024-03-17T06:52:42;11.80;99.90
5017;DHT22;2527;50.892;16.706;2024-03-17T06:55:08;11.90;99.90
5017;DHT22;2527;50.892;16.706;2024-03-17T06:57:34;11.90;99.90
5017;DHT22;2527;50.892;16.706;2024-03-17T07:00:00;12.00;99.90
5017;DHT22;2527;50.892;16.706;2024-03-17T07:02:26;12.00;99.90
5017;DHT22;2527;50.892;16.706;2024-03-17T07:04:51;12.10;99.90
5017;DHT22;2527;50.892;16.706;2024-03-17T07:07:18;12.20;99.90
5017;DHT22;2527;50.892;16.706;2024-03-17T07:09:46;12.20;99.90
5017;DHT22;2527;50.892;16.706;2024-03-17T07:12:17;10.60;99.90
5017;DHT22;2527;50.892;16.706;2024-03-17T07:14:49;12.30;99.90
5017;DHT22;2527;50.892;16.706;2024-03-17T07:17:15;12.30;99.90
5017;DHT22;2527;50.892;16.706;2024-03-17T07:19:41;12.30;99.90
5017;DHT22;2527;50.892;16.706;2024-03-17T07:22:12;12.40;99.90
5017;DHT22;2527;50.892;16.706;2024-03-17T07:24:37;12.40;99.90
5017;DHT22;2527;50.892;16.706;2024-03-17T07:27:03;12.40;99.90
5017;DHT22;2527;50.892;16.706;2024-03-17T07:29:29;12.40;99.90
5017;DHT22;2527;50.892;16.706;2024-03-17T07:31:55;12.50;99.90
5017;DHT22;2527;50.892;16.706;2024-03-17T07:34:20;12.50;99.90
5017;DHT22;2527;50.892;16.706;2024-03-17T07:36:46;12.50;99.90
5017;DHT22;2527;50.892;16.706;2024-03-17T07:39:12;12.60;99.90
5017;DHT22;2527;50.892;16.706;2024-03-17T07:41:38;12.70;99.90
5017;DHT22;2527;50.892;16.706;2024-03-17T07:44:03;12.70;99.90
5017;DHT22;2527;50.892;16.706;2024-03-17T07:46:29;12.70;99.90
5017;DHT22;2527;50.892;16.706;2024-03-17T07:48:55;12.70;99.90
5017;DHT22;2527;50.892;16.706;2024-03-17T07:51:21;12.80;99.90
5017;DHT22;2527;50.892;16.706;2024-03-17T07:53:48;12.80;99.90
5017;DHT22;2527;50.892;16.706;2024-03-17T07:56:15;12.90;99.90
5017;DHT22;2527;50.892;16.706;2024-03-17T07:58:41;12.90;99.90
5017;DHT22;2527;50.892;16.706;2024-03-17T08:01:08;12.90;99.90
5017;DHT22;2527;50.892;16.706;2024-03-17T08:03:35;12.90;99.90
5017;DHT22;2527;50.892;16.706;2024-03-17T08:06:02;13.00;99.90
5017;DHT22;2527;50.892;16.706;2024-03-17T08:08:28;13.00;99.90
5017;DHT22;2527;50.892;16.706;2024-03-17T08:10:55;13.00;99.90
5017;DHT22;2527;50.892;16.706;2024-03-17T08:13:21;13.10;99.90
5017;DHT22;2527;50.892;16.706;2024-03-17T08:15:54;13.20;99.90
5017;DHT22;2527;50.892;16.706;2024-03-17T08:18:20;13.20;99.90
5017;DHT22;2527;50.892;16.706;2024-03-17T08:20:46;13.20;99.90
5017;DHT22;2527;50.892;16.706;2024-03-17T08:23:12;13.30;99.90
5017;DHT22;2527;50.892;16.706;2024-03-17T08:25:38;13.40;99.90
5017;DHT22;2527;50.892;16.706;2024-03-17T08:28:05;13.40;99.90
5017;DHT22;2527;50.892;16.706;2024-03-17T08:30:30;13.40;99.90
5017;DHT22;2527;50.892;16.706;2024-03-17T08:32:56;13.40;99.90
5017;DHT22;2527;50.892;16.706;2024-03-17T08:35:22;13.40;99.90
5017;DHT22;2527;50.892;16.706;2024-03-17T08:37:48;13.40;99.90
5017;DHT22;2527;50.892;16.706;2024-03-17T08:40:14;13.40;99.90
5017;DHT22;2527;50.892;16.706;2024-03-17T08:42:40;13.50;99.90
5017;DHT22;2527;50.892;16.706;2024-03-17T08:45:06;13.50;99.90
5017;DHT22;2527;50.892;16.706;2024-03-17T08:47:31;13.50;99.90
5017;DHT22;2527;50.892;16.706;2024-03-17T08:49:57;13.50;99.90
5017;DHT22;2527;50.892;16.706;2024-03-17T08:52:24;13.50;99.90
5017;DHT22;2527;50.892;16.706;2024-03-17T08:54:49;13.50;99.90
5017;DHT22;2527;50.892;16.706;2024-03-17T08:57:18;13.50;99.90
5017;DHT22;2527;50.892;16.706;2024-03-17T08:59:47;13.50;99.90
5017;DHT22;2527;50.892;16.706;2024-03-17T09:02:13;13.60;99.90
5017;DHT22;2527;50.892;16.706;2024-03-17T09:04:42;13.60;99.90
5017;DHT22;2527;50.892;16.706;2024-03-17T09:07:09;13.60;99.90
5017;DHT22;2527;50.892;16.706;2024-03-17T09:09:35;13.60;99.90
5017;DHT22;2527;50.892;16.706;2024-03-17T09:12:04;13.60;99.90
5017;DHT22;2527;50.892;16.706;2024-03-17T09:14:30;13.60;99.90
5017;DHT22;2527;50.892;16.706;2024-03-17T09:16:57;13.60;99.90
5017;DHT22;2527;50.892;16.706;2024-03-17T09:19:23;13.60;99.90
5017;DHT22;2527;50.892;16.706;2024-03-17T09:21:51;13.10;99.90
5017;DHT22;2527;50.892;16.706;2024-03-17T09:24:17;13.40;99.90
5017;DHT22;2527;50.892;16.706;2024-03-17T09:26:42;13.30;99.90
5017;DHT22;2527;50.892;16.706;2024-03-17T09:29:08;13.20;99.90
5017;DHT22;2527;50.892;16.706;2024-03-17T09:31:34;13.10;99.90
5017;DHT22;2527;50.892;16.706;2024-03-17T09:34:03;11.40;99.90
5017;DHT22;2527;50.892;16.706;2024-03-17T09:36:30;12.90;99.90
5017;DHT22;2527;50.892;16.706;2024-03-17T09:38:56;12.90;99.90
5017;DHT22;2527;50.892;16.706;2024-03-17T09:41:22;12.90;99.90
5017;DHT22;2527;50.892;16.706;2024-03-17T09:43:50;12.80;99.90
5017;DHT22;2527;50.892;16.706;2024-03-17T09:46:19;12.80;99.90
5017;DHT22;2527;50.892;16.706;2024-03-17T09:48:44;12.80;99.90
5017;DHT22;2527;50.892;16.706;2024-03-17T09:51:16;12.80;99.90
5017;DHT22;2527;50.892;16.706;2024-03-17T09:53:43;12.70;99.90
5017;DHT22;2527;50.892;16.706;2024-03-17T09:56:14;12.60;99.90
5017;DHT22;2527;50.892;16.706;2024-03-17T09:58:44;12.50;99.90
5017;DHT22;2527;50.892;16.706;2024-03-17T10:01:12;12.50;99.90
5017;DHT22;2527;50.892;16.706;2024-03-17T10:03:39;12.40;99.90
5017;DHT22;2527;50.892;16.706;2024-03-17T10:06:08;12.40;99.90
5017;DHT22;2527;50.892;16.706;2024-03-17T10:08:49;12.30;99.90
5017;DHT22;2527;50.892;16.706;2024-03-17T10:11:22;12.30;99.90
5017;DHT22;2527;50.892;16.706;2024-03-17T10:13:59;12.30;99.90
5017;DHT22;2527;50.892;16.706;2024-03-17T10:16:28;12.30;99.90
5017;DHT22;2527;50.892;16.706;2024-03-17T10:21:45;12.40;99.90
5017;DHT22;2527;50.892;16.706;2024-03-17T10:24:23;12.30;99.90
5017;DHT22;2527;50.892;16.706;2024-03-17T10:26:54;12.30;99.90
5017;DHT22;2527;50.892;16.706;2024-03-17T10:29:30;12.30;99.90
5017;DHT22;2527;50.892;16.706;2024-03-17T10:31:57;12.30;99.90
5017;DHT22;2527;50.892;16.706;2024-03-17T10:34:24;12.30;99.90
5017;DHT22;2527;50.892;16.706;2024-03-17T10:36:51;12.30;99.90
5017;DHT22;2527;50.892;16.706;2024-03-17T10:39:25;12.30;99.90
5017;DHT22;2527;50.892;16.706;2024-03-17T10:41:57;12.30;99.90
5017;DHT22;2527;50.892;16.706;2024-03-17T10:44:27;12.20;99.90
5017;DHT22;2527;50.892;16.706;2024-03-17T10:46:55;12.30;99.90
5017;DHT22;2527;50.892;16.706;2024-03-17T10:49:29;12.20;99.90
5017;DHT22;2527;50.892;16.706;2024-03-17T10:52:02;12.30;99.90
5017;DHT22;2527;50.892;16.706;2024-03-17T10:54:29;12.30;99.90
5017;DHT22;2527;50.892;16.706;2024-03-17T10:56:56;12.40;99.90
5017;DHT22;2527;50.892;16.706;2024-03-17T10:59:38;12.40;99.90
5017;DHT22;2527;50.892;16.706;2024-03-17T11:02:17;12.40;99.90
5017;DHT22;2527;50.892;16.706;2024-03-17T11:04:45;12.40;99.90
5017;DHT22;2527;50.892;16.706;2024-03-17T11:07:15;12.40;99.90
5017;DHT22;2527;50.892;16.706;2024-03-17T11:09:41;12.30;99.90
5017;DHT22;2527;50.892;16.706;2024-03-17T11:12:37;12.50;99.90
5017;DHT22;2527;50.892;16.706;2024-03-17T11:15:14;12.40;99.90
5017;DHT22;2527;50.892;16.706;2024-03-17T11:17:39;12.40;99.90
5017;DHT22;2527;50.892;16.706;2024-03-17T11:20:17;12.40;99.90
5017;DHT22;2527;50.892;16.706;2024-03-17T11:22:44;12.50;99.90
5017;DHT22;2527;50.892;16.706;2024-03-17T11:27:54;12.50;99.90
5017;DHT22;2527;50.892;16.706;2024-03-17T11:33:18;12.50;99.90
5017;DHT22;2527;50.892;16.706;2024-03-17T11:35:51;12.50;99.90
5017;DHT22;2527;50.892;16.706;2024-03-17T11:43:48;12.50;99.90
5017;DHT22;2527;50.892;16.706;2024-03-17T11:46:14;12.50;99.90
5017;DHT22;2527;50.892;16.706;2024-03-17T11:48:40;12.50;99.90
5017;DHT22;2527;50.892;16.706;2024-03-17T11:51:06;12.50;99.90
5017;DHT22;2527;50.892;16.706;2024-03-17T11:53:33;12.50;99.90
5017;DHT22;2527;50.892;16.706;2024-03-17T11:55:59;12.50;99.90
5017;DHT22;2527;50.892;16.706;2024-03-17T11:58:29;12.60;99.90
5017;DHT22;2527;50.892;16.706;2024-03-17T12:00:54;12.60;99.90
5017;DHT22;2527;50.892;16.706;2024-03-17T12:03:21;12.60;99.90
5017;DHT22;2527;50.892;16.706;2024-03-17T12:05:48;12.60;99.90
5017;DHT22;2527;50.892;16.706;2024-03-17T12:08:20;12.60;99.90
5017;DHT22;2527;50.892;16.706;2024-03-17T12:10:47;12.60;99.90
5017;DHT22;2527;50.892;16.706;2024-03-17T12:13:13;12.60;99.90
5017;DHT22;2527;50.892;16.706;2024-03-17T12:15:39;12.60;99.90
5017;DHT22;2527;50.892;16.706;2024-03-17T12:18:19;12.50;99.90
5017;DHT22;2527;50.892;16.706;2024-03-17T12:20:49;12.50;99.90
5017;DHT22;2527;50.892;16.706;2024-03-17T12:23:20;12.60;99.90
5017;DHT22;2527;50.892;16.706;2024-03-17T12:25:49;12.60;99.90
5017;DHT22;2527;50.892;16.706;2024-03-17T12:28:15;12.60;99.90
5017;DHT22;2527;50.892;16.706;2024-03-17T12:30:41;12.60;99.90
5017;DHT22;2527;50.892;16.706;2024-03-17T12:33:08;12.60;99.90
5017;DHT22;2527;50.892;16.706;2024-03-17T12:35:36;12.60;99.90
5017;DHT22;2527;50.892;16.706;2024-03-17T12:38:18;12.50;99.90
5017;DHT22;2527;50.892;16.706;2024-03-17T12:40:46;12.40;99.90
5017;DHT22;2527;50.892;16.706;2024-03-17T12:43:12;12.40;99.90
5017;DHT22;2527;50.892;16.706;2024-03-17T12:45:38;12.40;99.90
5017;DHT22;2527;50.892;16.706;2024-03-17T12:48:10;12.40;99.90
5017;DHT22;2527;50.892;16.706;2024-03-17T12:50:43;12.40;99.90
5017;DHT22;2527;50.892;16.706;2024-03-17T12:53:13;13.20;99.90
5017;DHT22;2527;50.892;16.706;2024-03-17T12:55:42;12.40;99.90
5017;DHT22;2527;50.892;16.706;2024-03-17T12:58:26;12.40;99.90
5017;DHT22;2527;50.892;16.706;2024-03-17T13:01:12;12.30;99.90
5017;DHT22;2527;50.892;16.706;2024-03-17T13:03:38;12.30;99.90
5017;DHT22;2527;50.892;16.706;2024-03-17T13:06:05;11.40;99.90
5017;DHT22;2527;50.892;16.706;2024-03-17T13:08:35;12.30;99.90
5017;DHT22;2527;50.892;16.706;2024-03-17T13:11:00;12.30;99.90
5017;DHT22;2527;50.892;16.706;2024-03-17T13:13:29;12.30;99.90
5017;DHT22;2527;50.892;16.706;2024-03-17T13:15:54;12.30;99.90
5017;DHT22;2527;50.892;16.706;2024-03-17T13:18:20;12.30;99.90
5017;DHT22;2527;50.892;16.706;2024-03-17T13:20:47;12.30;99.90
5017;DHT22;2527;50.892;16.706;2024-03-17T13:23:16;12.40;99.90
5017;DHT22;2527;50.892;16.706;2024-03-17T13:25:45;12.40;99.90
5017;DHT22;2527;50.892;16.706;2024-03-17T13:28:11;12.40;99.90
5017;DHT22;2527;50.892;16.706;2024-03-17T13:30:37;12.40;99.90
5017;DHT22;2527;50.892;16.706;2024-03-17T13:33:03;12.40;99.90
5017;DHT22;2527;50.892;16.706;2024-03-17T13:35:34;12.40;99.90
5017;DHT22;2527;50.892;16.706;2024-03-17T13:38:00;12.40;99.90
5017;DHT22;2527;50.892;16.706;2024-03-17T13:40:27;12.40;99.90
5017;DHT22;2527;50.892;16.706;2024-03-17T13:42:55;12.40;99.90
5017;DHT22;2527;50.892;16.706;2024-03-17T13:45:21;12.40;99.90
5017;DHT22;2527;50.892;16.706;2024-03-17T13:47:55;12.40;99.90
5017;DHT22;2527;50.892;16.706;2024-03-17T13:50:22;12.30;99.90
5017;DHT22;2527;50.892;16.706;2024-03-17T13:52:48;12.30;99.90
5017;DHT22;2527;50.892;16.706;2024-03-17T13:55:15;12.30;99.90
5017;DHT22;2527;50.892;16.706;2024-03-17T13:57:43;12.30;99.90
5017;DHT22;2527;50.892;16.706;2024-03-17T14:00:09;12.30;99.90
5017;DHT22;2527;50.892;16.706;2024-03-17T14:02:35;12.30;99.90
5017;DHT22;2527;50.892;16.706;2024-03-17T14:05:00;12.10;99.90
5017;DHT22;2527;50.892;16.706;2024-03-17T14:07:29;12.20;99.90
5017;DHT22;2527;50.892;16.706;2024-03-17T14:09:58;12.20;99.90
5017;DHT22;2527;50.892;16.706;2024-03-17T14:12:23;12.20;99.90
5017;DHT22;2527;50.892;16.706;2024-03-17T14:14:51;12.20;99.90
5017;DHT22;2527;50.892;16.706;2024-03-17T14:17:18;12.30;99.90
5017;DHT22;2527;50.892;16.706;2024-03-17T14:19:48;12.30;99.90
5017;DHT22;2527;50.892;16.706;2024-03-17T14:22:13;12.30;99.90
5017;DHT22;2527;50.892;16.706;2024-03-17T14:24:39;12.30;99.90
5017;DHT22;2527;50.892;16.706;2024-03-17T14:27:06;12.30;99.90
5017;DHT22;2527;50.892;16.706;2024-03-17T14:29:31;12.20;99.90
5017;DHT22;2527;50.892;16.706;2024-03-17T14:31:57;12.20;99.90
5017;DHT22;2527;50.892;16.706;2024-03-17T14:34:23;12.30;99.90
5017;DHT22;2527;50.892;16.706;2024-03-17T14:36:49;12.30;99.90
5017;DHT22;2527;50.892;16.706;2024-03-17T14:39:15;12.30;99.90
5017;DHT22;2527;50.892;16.706;2024-03-17T14:41:44;12.30;99.90
5017;DHT22;2527;50.892;16.706;2024-03-17T14:44:12;12.30;99.90
5017;DHT22;2527;50.892;16.706;2024-03-17T14:46:38;12.30;99.90
5017;DHT22;2527;50.892;16.706;2024-03-17T14:49:04;12.30;99.90
5017;DHT22;2527;50.892;16.706;2024-03-17T14:51:30;12.20;99.90
5017;DHT22;2527;50.892;16.706;2024-03-17T14:53:55;12.30;99.90
5017;DHT22;2527;50.892;16.706;2024-03-17T14:56:21;12.30;99.90
5017;DHT22;2527;50.892;16.706;2024-03-17T14:58:47;13.20;99.90
5017;DHT22;2527;50.892;16.706;2024-03-17T15:01:13;12.30;99.90
5017;DHT22;2527;50.892;16.706;2024-03-17T15:03:39;12.30;99.90
5017;DHT22;2527;50.892;16.706;2024-03-17T15:06:12;12.30;99.90
5017;DHT22;2527;50.892;16.706;2024-03-17T15:08:40;12.30;99.90
5017;DHT22;2527;50.892;16.706;2024-03-17T15:11:05;12.30;99.90
5017;DHT22;2527;50.892;16.706;2024-03-17T15:13:33;12.30;99.90
5017;DHT22;2527;50.892;16.706;2024-03-17T15:15:59;12.30;99.90
5017;DHT22;2527;50.892;16.706;2024-03-17T15:18:24;12.20;99.90
5017;DHT22;2527;50.892;16.706;2024-03-17T15:20:53;12.30;99.90
5017;DHT22;2527;50.892;16.706;2024-03-17T15:23:20;12.20;99.90
5017;DHT22;2527;50.892;16.706;2024-03-17T15:25:46;12.20;99.90
5017;DHT22;2527;50.892;16.706;2024-03-17T15:28:12;12.20;99.90
5017;DHT22;2527;50.892;16.706;2024-03-17T15:30:38;12.20;99.90
5017;DHT22;2527;50.892;16.706;2024-03-17T15:33:04;12.20;99.90
5017;DHT22;2527;50.892;16.706;2024-03-17T15:35:30;12.10;99.90
5017;DHT22;2527;50.892;16.706;2024-03-17T15:37:57;12.10;99.90
5017;DHT22;2527;50.892;16.706;2024-03-17T15:40:23;12.10;99.90
5017;DHT22;2527;50.892;16.706;2024-03-17T15:42:49;12.10;99.90
5017;DHT22;2527;50.892;16.706;2024-03-17T15:45:16;12.00;99.90
5017;DHT22;2527;50.892;16.706;2024-03-17T15:47:41;12.00;99.90
5017;DHT22;2527;50.892;16.706;2024-03-17T15:50:08;12.10;99.90
5017;DHT22;2527;50.892;16.706;2024-03-17T15:52:37;12.00;99.90
5017;DHT22;2527;50.892;16.706;2024-03-17T15:55:23;12.00;99.90
5017;DHT22;2527;50.892;16.706;2024-03-17T15:57:51;12.00;99.90
5017;DHT22;2527;50.892;16.706;2024-03-17T16:00:17;12.00;99.90
5017;DHT22;2527;50.892;16.706;2024-03-17T16:02:44;12.00;99.90
5017;DHT22;2527;50.892;16.706;2024-03-17T16:05:16;12.00;99.90
5017;DHT22;2527;50.892;16.706;2024-03-17T16:07:42;12.00;99.90
5017;DHT22;2527;50.892;16.706;2024-03-17T16:10:08;12.00;99.90